Time;durP1;ratioP1;P1;durP2;ratioP2;P2;SDS_P1;SDS_P2;PMS_P1;PMS_P2;Temp;Humidity;BMP_temperature;BMP_pressure;BME280_temperature;BME280_humidity;BME280_pressure;Samples;Min_cycle;Max_cycle;Signal;HPM_P1;HPM_P2
2021/09/18 00:02:24;;;;;;;127.72;72.25;;;13.10;99.90;;;;;;5094335;28;20024;-68
2021/09/18 00:04:50;;;;;;;114.60;64.32;;;13.10;99.90;;;;;;5097217;28;20024;-68
2021/09/18 00:07:16;;;;;;;122.22;68.68;;;13.10;99.90;;;;;;5096034;28;20024;-68
2021/09/18 00:09:41;;;;;;;111.93;65.10;;;13.10;99.90;;;;;;5097157;28;20074;-69
2021/09/18 00:12:07;;;;;;;119.30;66.68;;;13.10;99.90;;;;;;5097080;28;20465;-68
2021/09/18 00:14:33;;;;;;;117.78;66.00;;;13.10;99.90;;;;;;5096703;28;20028;-68
2021/09/18 00:16:58;;;;;;;148.07;80.00;;;13.00;99.90;;;;;;5078310;28;20024;-68
2021/09/18 00:19:24;;;;;;;138.43;76.50;;;13.00;99.90;;;;;;5096907;28;20099;-68
2021/09/18 00:21:50;;;;;;;141.40;76.40;;;12.90;99.90;;;;;;5096625;28;20028;-68
2021/09/18 00:24:16;;;;;;;151.77;82.20;;;12.90;99.90;;;;;;5096835;28;20028;-68
2021/09/18 00:26:42;;;;;;;153.32;81.43;;;12.90;99.90;;;;;;5096755;28;20484;-68
2021/09/18 00:29:07;;;;;;;163.25;84.80;;;12.90;99.90;;;;;;5096764;28;20032;-68
2021/09/18 00:31:33;;;;;;;185.13;90.78;;;12.90;99.90;;;;;;5096398;28;20032;-68
2021/09/18 00:33:58;;;;;;;145.77;75.40;;;12.90;99.90;;;;;;5096608;28;20031;-68
2021/09/18 00:36:24;;;;;;;143.98;76.43;;;12.90;99.90;;;;;;5096556;28;20032;-68
2021/09/18 00:38:50;;;;;;;142.65;75.25;;;12.90;99.90;;;;;;5096261;28;20363;-67
2021/09/18 00:41:15;;;;;;;141.95;75.68;;;12.90;99.90;;;;;;5096504;28;20355;-68
2021/09/18 00:43:41;;;;;;;130.95;70.93;;;12.80;99.90;;;;;;5096470;28;20124;-68
2021/09/18 00:46:07;;;;;;;137.93;74.82;;;12.80;99.90;;;;;;5096153;28;20024;-68
2021/09/18 00:48:33;;;;;;;141.50;75.10;;;12.80;99.90;;;;;;5096397;28;20028;-70
2021/09/18 00:50:59;;;;;;;176.15;88.10;;;12.80;99.90;;;;;;5096352;28;20028;-69
2021/09/18 00:53:47;;;;;;;147.68;76.57;;;12.80;99.90;;;;;;5096304;28;20089;-68
2021/09/18 00:56:15;;;;;;;135.63;73.40;;;12.80;99.90;;;;;;5095475;28;20075;-68
2021/09/18 00:58:41;;;;;;;141.68;72.45;;;12.80;99.90;;;;;;5095657;28;20453;-68
2021/09/18 01:02:17;;;;;;;150.82;77.00;;;12.70;99.90;;;;;;5095888;28;20051;-68
2021/09/18 01:04:31;;;;;;;144.65;77.20;;;12.70;99.90;;;;;;5095344;28;20028;-68
2021/09/18 01:06:57;;;;;;;147.40;79.60;;;12.70;99.90;;;;;;5095748;28;20453;-68
2021/09/18 01:09:23;;;;;;;134.65;72.72;;;12.60;99.90;;;;;;5095920;28;20073;-68
2021/09/18 01:11:49;;;;;;;133.73;71.03;;;12.60;99.90;;;;;;5095655;28;20462;-68
2021/09/18 01:14:14;;;;;;;122.05;66.88;;;12.60;99.90;;;;;;5095888;28;20028;-68
2021/09/18 01:16:40;;;;;;;130.20;68.60;;;12.60;99.90;;;;;;5094765;28;20016;-68
2021/09/18 01:19:05;;;;;;;121.50;64.93;;;12.60;99.90;;;;;;5094638;28;20036;-68
2021/09/18 01:21:31;;;;;;;123.05;66.07;;;12.50;99.90;;;;;;5095764;28;20020;-68
2021/09/18 01:23:57;;;;;;;155.35;77.85;;;12.50;99.90;;;;;;5093999;28;20028;-67
2021/09/18 01:26:32;;;;;;;127.03;67.72;;;12.50;99.90;;;;;;5095593;28;20089;-67
2021/09/18 01:28:58;;;;;;;116.00;63.28;;;12.40;99.90;;;;;;5095605;28;20457;-69
2021/09/18 01:31:23;;;;;;;106.25;58.80;;;12.40;99.90;;;;;;5094120;28;20028;-69
2021/09/18 01:33:50;;;;;;;116.75;65.30;;;12.40;99.90;;;;;;5094928;28;20081;-68
2021/09/18 01:36:16;;;;;;;118.00;63.60;;;12.40;99.90;;;;;;5094835;28;20028;-68
2021/09/18 01:38:41;;;;;;;123.28;66.55;;;12.40;99.90;;;;;;5095387;28;20415;-68
2021/09/18 01:41:07;;;;;;;153.75;77.30;;;12.40;99.90;;;;;;5093649;28;20020;-68
2021/09/18 01:43:32;;;;;;;164.07;82.82;;;12.50;99.90;;;;;;5095309;28;20027;-68
2021/09/18 01:45:58;;;;;;;148.05;76.57;;;12.50;99.90;;;;;;5095264;28;20032;-68
2021/09/18 01:48:24;;;;;;;141.82;70.60;;;12.50;99.90;;;;;;5094952;28;20024;-68
2021/09/18 01:50:52;;;;;;;161.50;80.78;;;12.50;99.90;;;;;;5095247;28;20390;-67
2021/09/18 01:53:20;;;;;;;136.95;69.97;;;12.50;99.90;;;;;;5095177;28;20017;-68
2021/09/18 01:55:47;;;;;;;140.55;73.45;;;12.60;99.90;;;;;;5094425;28;20040;-68
2021/09/18 01:58:13;;;;;;;145.50;73.68;;;12.60;99.90;;;;;;5095052;28;20017;-68
2021/09/18 02:00:41;;;;;;;149.02;77.57;;;12.60;99.90;;;;;;5093570;28;20392;-68
2021/09/18 02:03:07;;;;;;;168.95;82.75;;;12.70;99.90;;;;;;5093863;28;20042;-68
2021/09/18 02:05:33;;;;;;;143.70;72.15;;;12.80;99.90;;;;;;5094656;28;20032;-68
2021/09/18 02:07:59;;;;;;;130.93;70.55;;;12.80;99.90;;;;;;5094641;28;20031;-68
2021/09/18 02:10:27;;;;;;;154.77;78.88;;;12.90;99.90;;;;;;5094811;28;20103;-68
2021/09/18 02:12:53;;;;;;;147.30;76.20;;;12.90;99.90;;;;;;5094525;28;20023;-68
2021/09/18 02:15:21;;;;;;;173.30;84.05;;;12.90;99.90;;;;;;5094715;28;20031;-68
2021/09/18 02:17:47;;;;;;;181.98;89.18;;;12.90;99.90;;;;;;5094729;28;20124;-68
2021/09/18 02:20:15;;;;;;;188.82;92.28;;;13.00;99.90;;;;;;5094719;28;20048;-68
2021/09/18 02:22:42;;;;;;;200.65;97.15;;;13.00;99.90;;;;;;5094382;28;20104;-69
2021/09/18 02:25:09;;;;;;;198.75;94.43;;;13.10;99.90;;;;;;5093940;28;20020;-68
2021/09/18 02:27:35;;;;;;;232.35;103.50;;;13.10;99.90;;;;;;5094015;28;20021;-68
2021/09/18 02:30:02;;;;;;;225.32;103.20;;;13.20;99.90;;;;;;5093066;28;20034;-68
2021/09/18 02:32:28;;;;;;;241.80;104.80;;;13.20;99.90;;;;;;5094537;28;20178;-67
2021/09/18 02:34:53;;;;;;;261.23;111.22;;;13.20;99.90;;;;;;5075682;28;20385;-68
2021/09/18 02:37:20;;;;;;;255.52;111.20;;;13.20;99.90;;;;;;5092644;28;20024;-68
2021/09/18 02:39:46;;;;;;;243.85;105.80;;;13.20;99.90;;;;;;5093815;28;20024;-68
2021/09/18 02:42:12;;;;;;;218.57;101.30;;;13.20;99.90;;;;;;5093178;28;20415;-68
2021/09/18 02:44:37;;;;;;;230.75;103.20;;;13.10;99.90;;;;;;5093790;28;20016;-68
2021/09/18 02:47:03;;;;;;;178.35;86.85;;;13.10;99.90;;;;;;5094252;28;20024;-68
2021/09/18 02:49:29;;;;;;;161.43;82.25;;;13.00;99.90;;;;;;5092802;28;20461;-68
2021/09/18 02:51:54;;;;;;;160.45;79.35;;;12.90;99.90;;;;;;5092785;28;20030;-69
2021/09/18 02:54:20;;;;;;;149.07;73.72;;;12.80;99.90;;;;;;5092529;28;20025;-68
2021/09/18 02:56:45;;;;;;;142.50;73.03;;;12.80;99.90;;;;;;5093822;28;20024;-68
2021/09/18 02:59:11;;;;;;;146.63;74.07;;;12.70;99.90;;;;;;5094103;28;20020;-68
2021/09/18 03:01:37;;;;;;;135.82;68.50;;;12.60;99.90;;;;;;5094090;28;20024;-68
2021/09/18 03:04:03;;;;;;;157.52;78.72;;;12.60;99.90;;;;;;5094091;28;20020;-68
2021/09/18 03:06:29;;;;;;;172.55;84.95;;;12.50;99.90;;;;;;5094120;28;20355;-68
2021/09/18 03:08:55;;;;;;;173.07;80.72;;;12.50;99.90;;;;;;5093814;28;20032;-68
2021/09/18 03:11:22;;;;;;;170.35;80.70;;;12.50;99.90;;;;;;5075806;28;20389;-68
2021/09/18 03:13:48;;;;;;;154.95;75.25;;;12.40;99.90;;;;;;5094022;28;20042;-68
2021/09/18 03:16:14;;;;;;;136.50;69.95;;;12.40;99.90;;;;;;5093961;28;20380;-69
2021/09/18 03:18:39;;;;;;;151.98;74.45;;;12.40;99.90;;;;;;5093967;28;20497;-68
2021/09/18 03:21:05;;;;;;;158.02;79.38;;;12.40;99.90;;;;;;5092150;28;20047;-68
2021/09/18 03:23:30;;;;;;;159.52;75.18;;;12.40;99.90;;;;;;5093899;28;20020;-68
2021/09/18 03:25:56;;;;;;;169.35;83.30;;;12.40;99.90;;;;;;5075856;28;20024;-68
2021/09/18 03:28:21;;;;;;;155.55;72.50;;;12.40;99.90;;;;;;5093840;28;20028;-67
2021/09/18 03:30:47;;;;;;;174.85;83.70;;;12.40;99.90;;;;;;5092732;28;20051;-69
2021/09/18 03:33:13;;;;;;;165.52;76.43;;;12.50;99.90;;;;;;5093539;28;20020;-67
2021/09/18 03:35:38;;;;;;;163.75;78.90;;;12.40;99.90;;;;;;5093473;28;20032;-68
2021/09/18 03:38:04;;;;;;;167.00;80.55;;;12.50;99.90;;;;;;5095136;28;20496;-68
2021/09/18 03:40:29;;;;;;;167.93;83.70;;;12.50;99.90;;;;;;5097488;28;20055;-69
2021/09/18 03:42:55;;;;;;;163.55;78.93;;;12.50;99.90;;;;;;5097397;28;20016;-68
2021/09/18 03:45:21;;;;;;;154.35;73.97;;;12.50;99.90;;;;;;5097330;28;20522;-68
2021/09/18 03:47:46;;;;;;;166.65;79.68;;;12.50;99.90;;;;;;5097318;28;20030;-68
2021/09/18 03:50:12;;;;;;;141.40;70.07;;;12.50;99.90;;;;;;5097519;28;20028;-68
2021/09/18 03:52:37;;;;;;;146.02;70.45;;;12.40;99.90;;;;;;5096338;28;20027;-68
2021/09/18 03:55:05;;;;;;;144.77;69.20;;;12.40;99.90;;;;;;5096787;28;20094;-68
2021/09/18 03:57:30;;;;;;;136.68;64.65;;;12.40;99.90;;;;;;5096242;28;20024;-68
2021/09/18 03:59:56;;;;;;;125.88;64.25;;;12.30;99.90;;;;;;5096758;28;20027;-68
2021/09/18 04:02:21;;;;;;;131.73;65.70;;;12.30;99.90;;;;;;5096732;28;20029;-68
2021/09/18 04:04:47;;;;;;;137.75;70.53;;;12.30;99.90;;;;;;5096706;28;20020;-68
2021/09/18 04:07:13;;;;;;;138.98;69.57;;;12.30;99.90;;;;;;5096890;28;20031;-68
2021/09/18 04:09:39;;;;;;;152.32;73.07;;;12.30;99.90;;;;;;5097152;28;20484;-68
2021/09/18 04:12:04;;;;;;;139.40;69.05;;;12.30;99.90;;;;;;5095674;28;20028;-68
2021/09/18 04:14:30;;;;;;;136.45;67.57;;;12.40;99.90;;;;;;5097055;28;20541;-68
2021/09/18 04:16:56;;;;;;;144.20;69.75;;;12.40;99.90;;;;;;5096395;28;20028;-67
2021/09/18 04:19:21;;;;;;;157.10;77.03;;;12.40;99.90;;;;;;5096962;28;20526;-68
2021/09/18 04:21:47;;;;;;;166.68;80.15;;;12.40;99.90;;;;;;5096658;28;20034;-67
2021/09/18 04:24:12;;;;;;;166.38;79.20;;;12.40;99.90;;;;;;5096597;28;20385;-67
2021/09/18 04:26:38;;;;;;;160.88;79.93;;;12.50;99.90;;;;;;5096814;28;20055;-67
2021/09/18 04:29:04;;;;;;;194.35;89.50;;;12.50;99.90;;;;;;5095616;28;20077;-68
2021/09/18 04:31:29;;;;;;;196.95;85.82;;;12.60;99.90;;;;;;5096782;28;20129;-68
2021/09/18 04:33:55;;;;;;;199.27;90.55;;;12.70;99.90;;;;;;5096120;28;20071;-68
2021/09/18 04:36:21;;;;;;;196.15;89.47;;;12.70;99.90;;;;;;5094737;28;20055;-68
2021/09/18 04:38:46;;;;;;;184.90;87.45;;;12.80;99.90;;;;;;5096626;28;20047;-68
2021/09/18 04:41:13;;;;;;;175.57;84.15;;;12.80;99.90;;;;;;5095112;28;20027;-68
2021/09/18 04:43:39;;;;;;;187.18;87.25;;;12.80;99.90;;;;;;5096506;28;20024;-68
2021/09/18 04:46:05;;;;;;;197.98;85.13;;;12.80;99.90;;;;;;5095884;28;20024;-67
2021/09/18 04:48:31;;;;;;;169.15;77.68;;;12.80;99.90;;;;;;5094651;28;20442;-68
2021/09/18 04:50:56;;;;;;;179.40;81.55;;;12.80;99.90;;;;;;5096336;28;20051;-68
2021/09/18 04:53:23;;;;;;;180.20;81.93;;;12.70;99.90;;;;;;5096047;28;20153;-68
2021/09/18 04:55:48;;;;;;;175.77;82.05;;;12.70;99.90;;;;;;5095618;28;20040;-68
2021/09/18 04:58:14;;;;;;;167.68;78.30;;;12.60;99.90;;;;;;5096204;28;20369;-68
2021/09/18 05:00:39;;;;;;;169.30;79.80;;;12.60;99.90;;;;;;5094729;28;20103;-68
2021/09/18 05:03:05;;;;;;;167.68;78.72;;;12.60;99.90;;;;;;5096129;28;20026;-68
2021/09/18 05:05:31;;;;;;;166.40;79.28;;;12.60;99.90;;;;;;5096080;28;20342;-69
2021/09/18 05:07:56;;;;;;;160.73;78.07;;;12.60;99.90;;;;;;5096024;28;20054;-68
2021/09/18 05:10:22;;;;;;;152.68;73.78;;;12.70;99.90;;;;;;5095975;28;20364;-68
2021/09/18 05:12:48;;;;;;;150.65;72.22;;;12.70;99.90;;;;;;5095973;28;20027;-68
2021/09/18 05:15:13;;;;;;;160.90;76.78;;;12.70;99.90;;;;;;5093978;28;20381;-68
2021/09/18 05:17:39;;;;;;;147.60;70.80;;;12.80;99.90;;;;;;5095840;28;20077;-68
2021/09/18 05:20:06;;;;;;;152.30;73.65;;;12.80;99.90;;;;;;5095512;28;20020;-67
2021/09/18 05:22:32;;;;;;;163.90;76.13;;;12.90;99.90;;;;;;5095458;28;20020;-67
2021/09/18 05:24:58;;;;;;;146.82;70.95;;;12.90;99.90;;;;;;5095124;28;20492;-68
2021/09/18 05:27:24;;;;;;;154.77;73.45;;;13.00;99.90;;;;;;5095401;28;20092;-68
2021/09/18 05:29:49;;;;;;;150.68;73.82;;;13.00;99.90;;;;;;5077799;28;20521;-68
2021/09/18 05:32:15;;;;;;;144.35;72.07;;;13.10;99.90;;;;;;5094993;28;20031;-67
2021/09/18 05:34:41;;;;;;;151.77;73.82;;;13.10;99.90;;;;;;5093664;28;20027;-68
2021/09/18 05:37:07;;;;;;;148.32;75.43;;;13.20;99.90;;;;;;5093755;28;20091;-68
2021/09/18 05:39:32;;;;;;;146.30;71.25;;;13.20;99.90;;;;;;5095478;28;20368;-69
2021/09/18 05:41:58;;;;;;;134.45;69.30;;;13.20;99.90;;;;;;5095099;28;20024;-67
2021/09/18 05:44:24;;;;;;;125.05;67.53;;;13.30;99.90;;;;;;5095055;28;20055;-67
2021/09/18 05:46:49;;;;;;;122.28;65.70;;;13.30;99.90;;;;;;5095020;28;20059;-68
2021/09/18 05:49:15;;;;;;;121.75;66.88;;;13.30;99.90;;;;;;5095281;28;20039;-68
2021/09/18 05:51:41;;;;;;;117.20;61.92;;;13.30;99.90;;;;;;5093719;28;20028;-69
2021/09/18 05:54:07;;;;;;;119.40;63.78;;;13.30;99.90;;;;;;5094955;28;20025;-68
2021/09/18 05:56:32;;;;;;;117.70;63.88;;;13.40;99.90;;;;;;5093854;28;20465;-68
2021/09/18 05:58:58;;;;;;;123.13;66.13;;;13.40;99.90;;;;;;5094795;28;20024;-68
2021/09/18 06:01:23;;;;;;;117.75;62.85;;;13.50;99.90;;;;;;5094359;28;20512;-68
2021/09/18 06:03:49;;;;;;;126.20;64.80;;;13.50;99.90;;;;;;5093539;28;20025;-68
2021/09/18 06:06:14;;;;;;;125.47;65.35;;;13.60;99.90;;;;;;5094925;28;20032;-68
2021/09/18 06:08:40;;;;;;;123.07;66.13;;;13.60;99.90;;;;;;5076183;28;20363;-69
2021/09/18 06:11:06;;;;;;;117.72;64.40;;;13.60;99.90;;;;;;5094831;28;20036;-69
2021/09/18 06:13:32;;;;;;;122.13;63.20;;;13.70;99.90;;;;;;5094560;28;20020;-69
2021/09/18 06:15:58;;;;;;;107.53;59.10;;;13.60;99.90;;;;;;5094669;28;20092;-69
2021/09/18 06:18:24;;;;;;;117.57;61.22;;;13.70;99.90;;;;;;5094423;28;20020;-68
2021/09/18 06:20:50;;;;;;;104.20;57.72;;;13.80;99.90;;;;;;5093266;28;20412;-68
2021/09/18 06:23:16;;;;;;;94.65;54.80;;;13.80;99.90;;;;;;5094628;28;20113;-69
2021/09/18 06:25:42;;;;;;;87.88;52.53;;;13.80;99.90;;;;;;5093170;28;20524;-69
2021/09/18 06:28:07;;;;;;;82.60;49.70;;;13.90;99.90;;;;;;5093067;28;20056;-69
2021/09/18 06:30:33;;;;;;;74.90;47.35;;;13.90;99.90;;;;;;5094515;28;20369;-68
2021/09/18 06:32:58;;;;;;;78.25;46.03;;;14.00;99.90;;;;;;5092656;28;20542;-68
2021/09/18 06:35:24;;;;;;;65.75;41.88;;;14.20;99.90;;;;;;5094359;28;20028;-68
2021/09/18 06:37:49;;;;;;;59.95;37.05;;;14.20;99.90;;;;;;5094394;28;20025;-68
2021/09/18 06:40:18;;;;;;;50.97;34.15;;;14.30;99.90;;;;;;5094127;28;20052;-69
2021/09/18 06:42:44;;;;;;;53.13;33.75;;;14.40;99.90;;;;;;5094321;28;20027;-69
2021/09/18 06:45:10;;;;;;;57.60;35.92;;;14.40;99.90;;;;;;5092493;28;20027;-68
2021/09/18 06:47:36;;;;;;;54.95;35.45;;;14.40;99.90;;;;;;5076577;28;20028;-69
2021/09/18 06:50:03;;;;;;;52.65;34.97;;;14.60;99.90;;;;;;5092502;28;20036;-69
2021/09/18 06:52:29;;;;;;;43.38;30.15;;;14.60;99.90;;;;;;5094201;28;20036;-68
2021/09/18 06:54:54;;;;;;;44.08;29.58;;;14.70;99.90;;;;;;5093714;28;20101;-69
2021/09/18 06:57:20;;;;;;;43.55;29.13;;;14.80;99.90;;;;;;5093615;28;20058;-68
2021/09/18 06:59:46;;;;;;;36.72;25.52;;;15.10;99.90;;;;;;5094169;28;20081;-68
2021/09/18 07:02:11;;;;;;;34.22;23.02;;;15.30;99.90;;;;;;5094114;28;20074;-69
2021/09/18 07:04:37;;;;;;;28.92;20.20;;;15.50;99.90;;;;;;5093835;28;20016;-69
2021/09/18 07:07:03;;;;;;;29.98;21.40;;;15.40;99.90;;;;;;5092273;28;20436;-69
2021/09/18 07:09:28;;;;;;;30.30;19.55;;;15.40;99.90;;;;;;5094112;28;20402;-69
2021/09/18 07:11:54;;;;;;;25.67;18.40;;;15.30;99.90;;;;;;5095775;28;20024;-69
2021/09/18 07:14:20;;;;;;;27.88;18.25;;;15.40;99.90;;;;;;5096401;28;20381;-69
2021/09/18 07:16:45;;;;;;;25.58;17.25;;;15.40;99.90;;;;;;5079468;28;20024;-68
2021/09/18 07:19:11;;;;;;;20.27;15.20;;;15.80;99.90;;;;;;5097849;28;20055;-69
2021/09/18 07:21:37;;;;;;;20.10;15.55;;;16.20;99.90;;;;;;5098126;28;20051;-69
2021/09/18 07:24:03;;;;;;;19.92;14.15;;;16.70;99.90;;;;;;5097538;28;20017;-68
2021/09/18 07:26:29;;;;;;;19.25;13.95;;;18.20;99.90;;;;;;5097758;28;20032;-69
2021/09/18 07:28:55;;;;;;;19.42;13.23;;;18.90;99.90;;;;;;5098010;28;20035;-68
2021/09/18 07:31:20;;;;;;;14.77;12.05;;;19.50;99.90;;;;;;5097962;28;20027;-68
2021/09/18 07:33:46;;;;;;;17.02;11.63;;;20.50;99.90;;;;;;5097623;28;20488;-69
2021/09/18 07:36:11;;;;;;;14.23;11.32;;;20.90;99.90;;;;;;5097728;28;20038;-70
2021/09/18 07:38:38;;;;;;;14.65;11.68;;;21.40;99.90;;;;;;5097226;28;20032;-69
2021/09/18 07:41:04;;;;;;;16.48;11.27;;;22.10;99.90;;;;;;5096329;28;20017;-69
2021/09/18 07:43:29;;;;;;;16.38;11.27;;;22.30;99.90;;;;;;5097450;28;20024;-69
2021/09/18 07:45:55;;;;;;;13.32;11.07;;;22.80;99.90;;;;;;5097634;28;20032;-69
2021/09/18 07:48:20;;;;;;;16.42;11.35;;;22.50;99.90;;;;;;5096151;28;20385;-69
2021/09/18 07:50:46;;;;;;;13.13;10.85;;;22.20;99.90;;;;;;5097277;28;20053;-69
2021/09/18 07:53:12;;;;;;;15.98;10.32;;;23.20;99.90;;;;;;5097241;28;20031;-69
2021/09/18 07:55:37;;;;;;;16.65;10.88;;;22.90;99.90;;;;;;5095400;28;20048;-69
2021/09/18 07:58:03;;;;;;;12.93;10.27;;;22.20;99.90;;;;;;5097377;28;20027;-69
2021/09/18 08:00:29;;;;;;;14.43;9.75;;;22.80;99.90;;;;;;5097376;28;20028;-68
2021/09/18 08:02:56;;;;;;;13.40;8.88;;;23.30;99.90;;;;;;5096151;28;20058;-69
2021/09/18 08:05:22;;;;;;;12.52;9.30;;;23.30;99.90;;;;;;5096967;28;20105;-69
2021/09/18 08:07:48;;;;;;;15.57;8.60;;;23.10;99.90;;;;;;5095473;28;20024;-69
2021/09/18 08:10:14;;;;;;;15.80;9.88;;;23.30;99.90;;;;;;5095705;28;20032;-69
2021/09/18 08:12:41;;;;;;;11.95;8.90;;;23.50;99.90;;;;;;5096847;28;20381;-69
2021/09/18 08:15:08;;;;;;;11.73;8.32;;;23.10;99.90;;;;;;5097026;28;20442;-69
2021/09/18 08:17:33;;;;;;;8.90;7.60;;;23.10;99.90;;;;;;5097059;28;20036;-70
2021/09/18 08:19:59;;;;;;;10.23;6.55;;;22.90;99.90;;;;;;5096993;28;20027;-69
2021/09/18 08:22:24;;;;;;;10.20;6.75;;;23.10;99.90;;;;;;5095790;28;20028;-69
2021/09/18 08:24:50;;;;;;;7.15;6.40;;;23.60;99.90;;;;;;5096146;28;20028;-70
2021/09/18 08:27:15;;;;;;;8.45;6.70;;;23.70;99.90;;;;;;5095715;28;20028;-70
2021/09/18 08:29:41;;;;;;;7.97;6.55;;;23.70;99.90;;;;;;5095660;28;20052;-69
2021/09/18 08:32:06;;;;;;;8.77;6.65;;;23.10;99.90;;;;;;5094985;28;20024;-69
2021/09/18 08:34:32;;;;;;;10.98;6.20;;;22.80;99.90;;;;;;5096457;28;20506;-69
2021/09/18 08:36:57;;;;;;;8.70;5.93;;;22.40;99.90;;;;;;5096331;28;20034;-70
2021/09/18 08:39:23;;;;;;;7.63;5.13;;;22.40;99.90;;;;;;5096638;28;20028;-70
2021/09/18 08:41:49;;;;;;;8.73;5.38;;;23.80;99.90;;;;;;5094668;28;20103;-69
2021/09/18 08:44:15;;;;;;;7.95;5.53;;;23.60;99.90;;;;;;5096468;28;20024;-70
2021/09/18 08:46:42;;;;;;;8.43;5.68;;;23.90;99.90;;;;;;5094586;28;20024;-70
2021/09/18 08:49:09;;;;;;;9.60;6.05;;;23.90;99.90;;;;;;5096430;28;20027;-69
2021/09/18 08:51:36;;;;;;;8.18;5.38;;;23.70;99.90;;;;;;5096406;28;20481;-69
2021/09/18 08:54:01;;;;;;;6.68;4.90;;;23.30;99.90;;;;;;5096188;28;20026;-72
2021/09/18 08:56:27;;;;;;;8.50;5.45;;;24.00;99.90;;;;;;5096207;28;20107;-70
2021/09/18 08:58:52;;;;;;;9.98;6.00;;;24.40;99.90;;;;;;5095104;28;20027;-69
2021/09/18 09:01:20;;;;;;;5.72;4.78;;;23.60;99.90;;;;;;5095307;28;20020;-70
2021/09/18 09:03:57;;;;;;;10.50;5.38;;;24.50;99.90;;;;;;5096174;28;20024;-69
2021/09/18 09:06:23;;;;;;;6.13;4.75;;;24.10;99.90;;;;;;5095818;28;20027;-69
2021/09/18 09:08:57;;;;;;;9.00;5.65;;;23.70;99.90;;;;;;5096049;28;20512;-69
2021/09/18 09:11:27;;;;;;;6.97;5.70;;;24.20;99.90;;;;;;5096031;28;20445;-69
2021/09/18 09:14:08;;;;;;;5.68;4.82;;;23.70;99.90;;;;;;5094579;28;20047;-70
2021/09/18 09:16:37;;;;;;;6.78;4.80;;;24.10;99.90;;;;;;5095862;28;20020;-70
2021/09/18 09:19:18;;;;;;;6.22;4.53;;;23.90;99.90;;;;;;5095576;28;20024;-69
2021/09/18 09:21:50;;;;;;;7.45;4.32;;;24.00;99.90;;;;;;5093947;28;20028;-69
2021/09/18 09:24:18;;;;;;;9.00;5.07;;;24.10;99.90;;;;;;5094374;28;20356;-69
2021/09/18 09:27:20;;;;;;;7.72;4.40;;;24.10;99.90;;;;;;5095756;28;20028;-69
2021/09/18 09:29:53;;;;;;;5.07;4.50;;;23.70;99.90;;;;;;5095684;28;20104;-69
2021/09/18 09:32:39;;;;;;;7.50;4.47;;;24.20;99.90;;;;;;5093790;28;20127;-70
2021/09/18 09:35:08;;;;;;;6.97;4.28;;;24.40;99.90;;;;;;5092577;28;20024;-70
2021/09/18 09:37:34;;;;;;;7.15;4.25;;;24.60;99.90;;;;;;5095496;28;20016;-69
2021/09/18 09:40:04;;;;;;;9.55;4.72;;;24.80;99.90;;;;;;5095324;28;20366;-69
2021/09/18 09:42:32;;;;;;;4.32;3.92;;;25.20;99.90;;;;;;5093964;28;20449;-70
2021/09/18 09:45:18;;;;;;;5.85;4.30;;;24.90;99.90;;;;;;5093481;28;20024;-69
2021/09/18 09:47:45;;;;;;;6.25;4.60;;;24.70;99.90;;;;;;5095295;28;20023;-69
2021/09/18 09:50:13;;;;;;;6.68;3.90;;;24.50;99.90;;;;;;5095271;28;20020;-69
2021/09/18 09:52:40;;;;;;;5.63;4.07;;;25.00;99.90;;;;;;5094943;28;20019;-70
2021/09/18 09:55:12;;;;;;;5.95;4.07;;;24.90;99.90;;;;;;5093075;28;20405;-68
2021/09/18 09:57:39;;;;;;;5.57;4.00;;;24.80;99.90;;;;;;5095142;28;20029;-69
2021/09/18 10:00:10;;;;;;;6.32;4.65;;;25.20;99.90;;;;;;5076321;28;20016;-69
2021/09/18 10:02:38;;;;;;;8.48;4.95;;;24.80;99.90;;;;;;5094773;28;20024;-69
2021/09/18 10:05:06;;;;;;;6.43;4.68;;;25.00;99.90;;;;;;5095004;28;20102;-69
2021/09/18 10:07:32;;;;;;;5.45;4.25;;;24.90;99.90;;;;;;5093193;28;20028;-69
2021/09/18 10:10:00;;;;;;;6.63;4.43;;;25.90;99.90;;;;;;5093704;28;20457;-70
2021/09/18 10:12:27;;;;;;;6.25;3.80;;;25.70;99.90;;;;;;5093446;28;20077;-69
2021/09/18 10:14:55;;;;;;;6.30;5.20;;;25.50;99.90;;;;;;5094658;28;20028;-69
2021/09/18 10:17:21;;;;;;;6.00;4.88;;;25.30;99.90;;;;;;5093336;28;20024;-70
2021/09/18 10:25:19;;;;;;;7.93;4.75;;;25.20;99.90;;;;;;5111198;28;20023;-70
2021/09/18 10:28:09;;;;;;;8.88;4.35;;;24.70;99.90;;;;;;5110028;28;20032;-70
2021/09/18 10:30:43;;;;;;;8.38;5.35;;;24.90;99.90;;;;;;5111522;28;20031;-69
2021/09/18 10:33:45;;;;;;;6.97;5.40;;;24.80;99.90;;;;;;5111747;28;20034;-71
2021/09/18 10:36:24;;;;;;;7.93;4.60;;;25.10;99.90;;;;;;5109813;28;20024;-70
2021/09/18 10:39:03;;;;;;;6.82;4.68;;;25.00;99.90;;;;;;5111361;28;20350;-70
2021/09/18 10:41:59;;;;;;;7.05;5.18;;;25.00;99.90;;;;;;5111527;28;20080;-70
2021/09/18 10:44:45;;;;;;;7.70;5.72;;;25.10;99.90;;;;;;5109926;28;20028;-69
2021/09/18 10:47:11;;;;;;;6.80;5.55;;;24.40;99.90;;;;;;5110236;28;20024;-69
2021/09/18 10:49:40;;;;;;;8.82;5.85;;;23.50;99.90;;;;;;5111472;28;20077;-69
2021/09/18 10:52:28;;;;;;;6.82;4.43;;;24.50;99.90;;;;;;5110864;28;20030;-70
2021/09/18 10:55:07;;;;;;;8.82;4.80;;;24.60;99.90;;;;;;5111368;28;20020;-69
2021/09/18 11:00:26;;;;;;;8.65;4.38;;;25.10;99.90;;;;;;5112191;27;20355;-68
2021/09/18 11:02:54;;;;;;;8.02;5.53;;;25.50;99.90;;;;;;5111654;28;20034;-67
2021/09/18 11:08:02;;;;;;;6.15;4.15;;;25.60;99.90;;;;;;5091787;28;20417;-68
2021/09/18 11:16:05;;;;;;;4.68;4.20;;;25.50;99.90;;;;;;5091823;27;20356;-68
2021/09/18 11:18:35;;;;;;;9.30;5.20;;;24.10;99.90;;;;;;5091239;28;20470;-69
2021/09/18 11:21:06;;;;;;;6.65;4.57;;;23.10;99.90;;;;;;5091511;28;20017;-69
2021/09/18 11:23:38;;;;;;;5.88;4.18;;;23.00;99.90;;;;;;5091507;28;20020;-69
2021/09/18 11:26:41;;;;;;;6.30;4.40;;;22.70;99.90;;;;;;5073360;28;20078;-69
2021/09/18 11:29:11;;;;;;;7.25;5.28;;;22.30;99.90;;;;;;5089640;28;20044;-69
2021/09/18 11:31:39;;;;;;;7.57;4.65;;;22.60;99.90;;;;;;5090751;28;20389;-69
2021/09/18 11:34:05;;;;;;;5.70;4.53;;;23.00;99.90;;;;;;5091202;28;20063;-69
2021/09/18 11:36:43;;;;;;;4.47;3.35;;;23.30;99.90;;;;;;5091280;28;20104;-71
2021/09/18 11:39:08;;;;;;;6.72;3.78;;;23.90;99.90;;;;;;5091187;28;20368;-68
2021/09/18 11:41:34;;;;;;;6.72;4.63;;;23.90;99.90;;;;;;5090861;28;20024;-69
2021/09/18 11:44:10;;;;;;;8.10;4.10;;;23.50;99.90;;;;;;5089290;28;20047;-69
2021/09/18 11:46:36;;;;;;;5.68;4.40;;;23.50;99.90;;;;;;5090530;28;20020;-69
2021/09/18 11:49:03;;;;;;;8.73;3.90;;;23.50;99.90;;;;;;5089868;28;20033;-69
2021/09/18 11:51:29;;;;;;;5.85;3.60;;;23.60;99.90;;;;;;5090895;28;20021;-69
2021/09/18 11:54:04;;;;;;;5.32;3.60;;;23.90;99.90;;;;;;5089380;28;20024;-69
2021/09/18 11:56:29;;;;;;;4.97;3.83;;;23.80;99.90;;;;;;5090875;28;20061;-69
2021/09/18 11:58:55;;;;;;;4.82;3.58;;;23.70;99.90;;;;;;5090266;28;20024;-69
2021/09/18 12:01:21;;;;;;;4.00;3.40;;;22.90;99.90;;;;;;5090476;28;20370;-72
2021/09/18 12:03:48;;;;;;;6.40;3.70;;;22.70;99.90;;;;;;5090750;28;20465;-72
2021/09/18 12:06:17;;;;;;;5.05;3.33;;;22.00;99.90;;;;;;5090672;28;20024;-72
2021/09/18 12:08:47;;;;;;;8.10;3.20;;;21.70;99.90;;;;;;5089194;28;20024;-72
2021/09/18 12:11:17;;;;;;;5.60;3.28;;;21.70;99.90;;;;;;5090576;28;20051;-69
2021/09/18 12:13:45;;;;;;;5.30;3.53;;;21.80;99.90;;;;;;5090242;28;20072;-69
2021/09/18 12:16:12;;;;;;;4.40;3.47;;;21.40;99.90;;;;;;5090464;28;20016;-70
2021/09/18 12:18:41;;;;;;;4.60;3.13;;;21.60;99.90;;;;;;5088978;28;20016;-69
2021/09/18 12:21:20;;;;;;;6.80;3.00;;;21.90;99.90;;;;;;5090344;28;20026;-69
2021/09/18 12:23:48;;;;;;;3.33;2.70;;;22.40;99.90;;;;;;5090081;28;20028;-69
2021/09/18 12:26:16;;;;;;;4.80;2.75;;;22.40;99.90;;;;;;5081772;28;20024;-69
2021/09/18 12:28:44;;;;;;;4.45;2.67;;;22.80;99.90;;;;;;5076690;28;20024;-69
2021/09/18 12:31:20;;;;;;;4.97;3.03;;;22.80;99.90;;;;;;5074872;28;20048;-69
2021/09/18 12:33:48;;;;;;;5.40;2.60;;;22.80;99.90;;;;;;5075606;28;20034;-69
2021/09/18 12:36:17;;;;;;;4.47;2.58;;;22.70;99.90;;;;;;5076070;28;20021;-69
2021/09/18 12:38:44;;;;;;;4.00;3.03;;;22.60;99.90;;;;;;5076588;28;20017;-69
2021/09/18 12:41:14;;;;;;;4.53;3.05;;;22.40;99.90;;;;;;5075114;28;20405;-69
2021/09/18 12:43:55;;;;;;;5.80;3.20;;;22.30;99.90;;;;;;5076493;28;20450;-69
2021/09/18 12:46:20;;;;;;;4.28;2.25;;;22.50;99.90;;;;;;5074956;28;20035;-69
2021/09/18 12:48:56;;;;;;;4.72;2.83;;;22.70;99.90;;;;;;5074950;28;20366;-69